sensor_id;sensor_type;location;lat;lon;timestamp;pressure;altitude;pressure_sealevel;temperature;humidity
29903;BME280;30288;50.514;9.678;2023-01-15T00:01:15;97100.03;;;9.23;100.00
29903;BME280;30288;50.514;9.678;2023-01-15T00:03:21;97109.19;;;9.24;100.00
29903;BME280;30288;50.514;9.678;2023-01-15T00:05:27;97095.75;;;9.25;100.00
29903;BME280;30288;50.514;9.678;2023-01-15T00:07:32;97092.38;;;9.26;100.00
29903;BME280;30288;50.514;9.678;2023-01-15T00:09:38;97088.94;;;9.27;100.00
29903;BME280;30288;50.514;9.678;2023-01-15T00:11:45;97094.94;;;9.25;100.00
29903;BME280;30288;50.514;9.678;2023-01-15T00:13:50;97067.38;;;9.23;100.00
29903;BME280;30288;50.514;9.678;2023-01-15T00:16:02;97070.66;;;9.25;100.00
29903;BME280;30288;50.514;9.678;2023-01-15T00:18:08;97062.13;;;9.28;100.00
29903;BME280;30288;50.514;9.678;2023-01-15T00:20:13;97058.81;;;9.27;100.00
29903;BME280;30288;50.514;9.678;2023-01-15T00:22:18;97076.31;;;9.29;100.00
29903;BME280;30288;50.514;9.678;2023-01-15T00:24:24;97070.34;;;9.31;100.00
29903;BME280;30288;50.514;9.678;2023-01-15T00:26:44;97075.50;;;9.28;100.00
29903;BME280;30288;50.514;9.678;2023-01-15T00:29:02;97060.44;;;9.28;100.00
29903;BME280;30288;50.514;9.678;2023-01-15T00:31:13;97061.25;;;9.29;100.00
29903;BME280;30288;50.514;9.678;2023-01-15T00:33:18;97059.56;;;9.29;100.00
29903;BME280;30288;50.514;9.678;2023-01-15T00:35:24;97053.66;;;9.30;100.00
29903;BME280;30288;50.514;9.678;2023-01-15T00:37:29;97063.38;;;9.36;100.00
29903;BME280;30288;50.514;9.678;2023-01-15T00:39:34;97058.94;;;9.41;100.00
29903;BME280;30288;50.514;9.678;2023-01-15T00:41:39;97057.47;;;9.37;100.00
29903;BME280;30288;50.514;9.678;2023-01-15T00:43:47;97049.22;;;9.35;100.00
29903;BME280;30288;50.514;9.678;2023-01-15T00:45:54;97042.31;;;9.39;100.00
29903;BME280;30288;50.514;9.678;2023-01-15T00:47:59;97034.84;;;9.37;100.00
29903;BME280;30288;50.514;9.678;2023-01-15T00:50:07;97017.38;;;9.36;100.00
29903;BME280;30288;50.514;9.678;2023-01-15T00:52:13;97028.06;;;9.39;100.00
29903;BME280;30288;50.514;9.678;2023-01-15T00:54:18;97028.06;;;9.39;100.00
29903;BME280;30288;50.514;9.678;2023-01-15T00:56:24;97033.03;;;9.41;100.00
29903;BME280;30288;50.514;9.678;2023-01-15T00:58:29;97013.00;;;9.39;100.00
29903;BME280;30288;50.514;9.678;2023-01-15T01:00:37;97019.78;;;9.37;100.00
29903;BME280;30288;50.514;9.678;2023-01-15T01:02:42;97029.69;;;9.40;100.00
29903;BME280;30288;50.514;9.678;2023-01-15T01:04:47;97016.22;;;9.41;100.00
29903;BME280;30288;50.514;9.678;2023-01-15T01:06:53;97028.06;;;9.39;100.00
29903;BME280;30288;50.514;9.678;2023-01-15T01:08:58;97032.22;;;9.40;100.00
29903;BME280;30288;50.514;9.678;2023-01-15T01:11:08;97018.97;;;9.37;100.00
29903;BME280;30288;50.514;9.678;2023-01-15T01:13:14;97023.16;;;9.36;100.00
29903;BME280;30288;50.514;9.678;2023-01-15T01:15:19;97003.88;;;9.37;100.00
29903;BME280;30288;50.514;9.678;2023-01-15T01:17:27;97003.06;;;9.36;100.00
29903;BME280;30288;50.514;9.678;2023-01-15T01:19:32;97010.72;;;9.35;100.00
29903;BME280;30288;50.514;9.678;2023-01-15T01:21:40;97007.16;;;9.39;100.00
29903;BME280;30288;50.514;9.678;2023-01-15T01:23:46;97017.19;;;9.39;100.00
29903;BME280;30288;50.514;9.678;2023-01-15T01:25:51;97013.13;;;9.36;100.00
29903;BME280;30288;50.514;9.678;2023-01-15T01:27:57;97024.81;;;9.37;100.00
29903;BME280;30288;50.514;9.678;2023-01-15T01:30:04;97027.19;;;9.40;100.00
29903;BME280;30288;50.514;9.678;2023-01-15T01:32:09;97027.25;;;9.39;100.00
29903;BME280;30288;50.514;9.678;2023-01-15T01:34:18;97033.09;;;9.39;100.00
29903;BME280;30288;50.514;9.678;2023-01-15T01:36:28;97033.72;;;9.43;100.00
29903;BME280;30288;50.514;9.678;2023-01-15T01:38:34;97040.22;;;9.47;100.00
29903;BME280;30288;50.514;9.678;2023-01-15T01:40:40;97034.38;;;9.46;100.00
29903;BME280;30288;50.514;9.678;2023-01-15T01:42:45;97031.16;;;9.44;100.00
29903;BME280;30288;50.514;9.678;2023-01-15T01:45:16;97037.94;;;9.42;100.00
29903;BME280;30288;50.514;9.678;2023-01-15T01:47:28;97031.16;;;9.44;100.00
29903;BME280;30288;50.514;9.678;2023-01-15T01:49:38;97037.81;;;9.45;100.00
29903;BME280;30288;50.514;9.678;2023-01-15T01:51:49;97031.00;;;9.47;100.00
29903;BME280;30288;50.514;9.678;2023-01-15T01:53:57;97030.09;;;9.48;100.00
29903;BME280;30288;50.514;9.678;2023-01-15T01:56:07;97032.44;;;9.51;100.00
29903;BME280;30288;50.514;9.678;2023-01-15T01:58:13;97035.84;;;9.50;100.00
29903;BME280;30288;50.514;9.678;2023-01-15T02:00:19;97040.88;;;9.50;100.00
29903;BME280;30288;50.514;9.678;2023-01-15T02:02:26;97041.69;;;9.51;100.00
29903;BME280;30288;50.514;9.678;2023-01-15T02:04:32;97070.91;;;9.53;100.00
29903;BME280;30288;50.514;9.678;2023-01-15T02:06:42;97087.91;;;9.48;100.00
29903;BME280;30288;50.514;9.678;2023-01-15T02:08:47;97084.97;;;9.06;100.00
29903;BME280;30288;50.514;9.678;2023-01-15T02:10:54;97086.31;;;8.78;100.00
29903;BME280;30288;50.514;9.678;2023-01-15T02:13:10;97093.28;;;8.55;100.00
29903;BME280;30288;50.514;9.678;2023-01-15T02:15:25;97086.84;;;8.49;100.00
29903;BME280;30288;50.514;9.678;2023-01-15T02:17:38;97090.38;;;8.45;100.00
29903;BME280;30288;50.514;9.678;2023-01-15T02:19:52;97101.72;;;8.35;100.00
29903;BME280;30288;50.514;9.678;2023-01-15T02:22:12;97090.28;;;8.28;100.00
29903;BME280;30288;50.514;9.678;2023-01-15T02:24:25;97098.97;;;8.21;100.00
29903;BME280;30288;50.514;9.678;2023-01-15T02:27:01;97098.22;;;8.19;100.00
29903;BME280;30288;50.514;9.678;2023-01-15T02:29:16;97101.28;;;8.07;100.00
29903;BME280;30288;50.514;9.678;2023-01-15T02:31:27;97104.66;;;8.06;100.00
29903;BME280;30288;50.514;9.678;2023-01-15T02:33:38;97108.19;;;8.02;100.00
29903;BME280;30288;50.514;9.678;2023-01-15T02:35:48;97107.56;;;7.97;100.00
29903;BME280;30288;50.514;9.678;2023-01-15T02:37:58;97123.88;;;7.86;100.00
29903;BME280;30288;50.514;9.678;2023-01-15T02:40:07;97134.88;;;7.84;100.00
29903;BME280;30288;50.514;9.678;2023-01-15T02:42:20;97130.94;;;7.78;100.00
29903;BME280;30288;50.514;9.678;2023-01-15T02:44:29;97136.44;;;7.66;100.00
29903;BME280;30288;50.514;9.678;2023-01-15T02:46:37;97144.34;;;7.57;100.00
29903;BME280;30288;50.514;9.678;2023-01-15T02:48:49;97149.91;;;7.43;100.00
29903;BME280;30288;50.514;9.678;2023-01-15T02:51:02;97147.09;;;7.31;100.00
29903;BME280;30288;50.514;9.678;2023-01-15T02:53:16;97160.69;;;7.25;100.00
29903;BME280;30288;50.514;9.678;2023-01-15T02:55:28;97167.88;;;7.13;100.00
29903;BME280;30288;50.514;9.678;2023-01-15T02:57:38;97159.31;;;6.96;100.00
29903;BME280;30288;50.514;9.678;2023-01-15T02:59:49;97162.34;;;6.83;100.00
29903;BME280;30288;50.514;9.678;2023-01-15T03:01:59;97164.38;;;6.73;100.00
29903;BME280;30288;50.514;9.678;2023-01-15T03:04:11;97172.75;;;6.72;100.00
29903;BME280;30288;50.514;9.678;2023-01-15T03:06:23;97172.25;;;6.64;100.00
29903;BME280;30288;50.514;9.678;2023-01-15T03:08:31;97179.09;;;6.59;100.00
29903;BME280;30288;50.514;9.678;2023-01-15T03:10:42;97180.25;;;6.50;100.00
29903;BME280;30288;50.514;9.678;2023-01-15T03:12:59;97196.28;;;6.45;100.00
29903;BME280;30288;50.514;9.678;2023-01-15T03:15:19;97177.44;;;6.36;100.00
29903;BME280;30288;50.514;9.678;2023-01-15T03:17:50;97192.88;;;6.24;100.00
29903;BME280;30288;50.514;9.678;2023-01-15T03:20:00;97192.03;;;6.24;100.00
29903;BME280;30288;50.514;9.678;2023-01-15T03:22:14;97193.88;;;6.19;100.00
29903;BME280;30288;50.514;9.678;2023-01-15T03:24:28;97200.72;;;6.13;100.00
29903;BME280;30288;50.514;9.678;2023-01-15T03:26:35;97210.72;;;6.13;100.00
29903;BME280;30288;50.514;9.678;2023-01-15T03:28:43;97215.84;;;6.10;100.00
29903;BME280;30288;50.514;9.678;2023-01-15T03:30:49;97205.16;;;6.07;100.00
29903;BME280;30288;50.514;9.678;2023-01-15T03:32:54;97197.69;;;6.05;100.00
29903;BME280;30288;50.514;9.678;2023-01-15T03:35:00;97204.53;;;6.00;100.00
29903;BME280;30288;50.514;9.678;2023-01-15T03:37:06;97208.81;;;5.97;100.00
29903;BME280;30288;50.514;9.678;2023-01-15T03:39:12;97201.56;;;5.89;100.00
29903;BME280;30288;50.514;9.678;2023-01-15T03:41:44;97204.97;;;5.88;100.00
29903;BME280;30288;50.514;9.678;2023-01-15T03:44:05;97212.28;;;5.93;100.00
29903;BME280;30288;50.514;9.678;2023-01-15T03:46:25;97214.63;;;5.97;100.00
29903;BME280;30288;50.514;9.678;2023-01-15T03:48:42;97195.84;;;5.86;100.00
29903;BME280;30288;50.514;9.678;2023-01-15T03:50:54;97190.97;;;5.83;100.00
29903;BME280;30288;50.514;9.678;2023-01-15T03:53:10;97196.78;;;5.83;100.00
29903;BME280;30288;50.514;9.678;2023-01-15T03:55:34;97200.00;;;5.85;100.00
29903;BME280;30288;50.514;9.678;2023-01-15T03:57:49;97211.56;;;5.89;100.00
29903;BME280;30288;50.514;9.678;2023-01-15T04:00:01;97208.47;;;5.81;100.00
29903;BME280;30288;50.514;9.678;2023-01-15T04:02:18;97206.84;;;5.80;100.00
29903;BME280;30288;50.514;9.678;2023-01-15T04:04:26;97208.41;;;5.84;100.00
29903;BME280;30288;50.514;9.678;2023-01-15T04:06:36;97209.97;;;5.88;100.00
29903;BME280;30288;50.514;9.678;2023-01-15T04:08:45;97216.63;;;5.86;100.00
29903;BME280;30288;50.514;9.678;2023-01-15T04:10:54;97232.50;;;5.85;100.00
29903;BME280;30288;50.514;9.678;2023-01-15T04:13:04;97244.03;;;5.89;100.00
29903;BME280;30288;50.514;9.678;2023-01-15T04:15:12;97243.09;;;5.93;100.00
29903;BME280;30288;50.514;9.678;2023-01-15T04:17:18;97238.28;;;5.87;100.00
29903;BME280;30288;50.514;9.678;2023-01-15T04:19:23;97234.97;;;5.87;100.00
29903;BME280;30288;50.514;9.678;2023-01-15T04:21:33;97241.63;;;5.86;100.00
29903;BME280;30288;50.514;9.678;2023-01-15T04:23:38;97248.63;;;5.75;100.00
29903;BME280;30288;50.514;9.678;2023-01-15T04:25:43;97252.22;;;5.68;100.00
29903;BME280;30288;50.514;9.678;2023-01-15T04:27:49;97249.16;;;5.60;100.00
29903;BME280;30288;50.514;9.678;2023-01-15T04:29:54;97254.44;;;5.51;100.00
29903;BME280;30288;50.514;9.678;2023-01-15T04:32:03;97253.19;;;5.38;100.00
29903;BME280;30288;50.514;9.678;2023-01-15T04:34:09;97255.88;;;5.32;100.00
29903;BME280;30288;50.514;9.678;2023-01-15T04:36:14;97268.66;;;5.22;100.00
29903;BME280;30288;50.514;9.678;2023-01-15T04:38:19;97276.88;;;5.24;100.00
29903;BME280;30288;50.514;9.678;2023-01-15T04:40:25;97273.81;;;5.16;100.00
29903;BME280;30288;50.514;9.678;2023-01-15T04:42:43;97278.44;;;5.01;100.00
29903;BME280;30288;50.514;9.678;2023-01-15T04:45:00;97280.22;;;4.96;100.00
29903;BME280;30288;50.514;9.678;2023-01-15T04:47:08;97285.41;;;4.90;100.00
29903;BME280;30288;50.514;9.678;2023-01-15T04:49:16;97294.81;;;4.80;100.00
29903;BME280;30288;50.514;9.678;2023-01-15T04:51:21;97305.03;;;4.71;100.00
29903;BME280;30288;50.514;9.678;2023-01-15T04:53:26;97302.78;;;4.63;100.00
29903;BME280;30288;50.514;9.678;2023-01-15T04:55:32;97302.69;;;4.66;100.00
29903;BME280;30288;50.514;9.678;2023-01-15T04:57:37;97301.19;;;4.61;100.00
29903;BME280;30288;50.514;9.678;2023-01-15T04:59:43;97302.06;;;4.60;100.00
29903;BME280;30288;50.514;9.678;2023-01-15T05:01:49;97303.59;;;4.64;100.00
29903;BME280;30288;50.514;9.678;2023-01-15T05:04:09;97319.50;;;4.60;100.00
29903;BME280;30288;50.514;9.678;2023-01-15T05:06:14;97321.47;;;4.47;100.00
29903;BME280;30288;50.514;9.678;2023-01-15T05:08:20;97316.75;;;4.38;100.00
29903;BME280;30288;50.514;9.678;2023-01-15T05:10:25;97314.81;;;4.48;100.00
29903;BME280;30288;50.514;9.678;2023-01-15T05:12:30;97305.06;;;4.40;100.00
29903;BME280;30288;50.514;9.678;2023-01-15T05:14:35;97314.44;;;4.32;100.00
29903;BME280;30288;50.514;9.678;2023-01-15T05:16:40;97299.50;;;4.30;100.00
29903;BME280;30288;50.514;9.678;2023-01-15T05:18:47;97296.31;;;4.25;100.00
29903;BME280;30288;50.514;9.678;2023-01-15T05:20:54;97296.31;;;4.25;100.00
29903;BME280;30288;50.514;9.678;2023-01-15T05:22:59;97303.00;;;4.23;100.00
29903;BME280;30288;50.514;9.678;2023-01-15T05:25:05;97292.97;;;4.26;100.00
29903;BME280;30288;50.514;9.678;2023-01-15T05:27:10;97293.03;;;4.23;100.00
29903;BME280;30288;50.514;9.678;2023-01-15T05:29:16;97288.94;;;4.22;100.00
29903;BME280;30288;50.514;9.678;2023-01-15T05:31:22;97294.81;;;4.18;100.00
29903;BME280;30288;50.514;9.678;2023-01-15T05:33:28;97308.31;;;4.11;100.00
29903;BME280;30288;50.514;9.678;2023-01-15T05:35:33;97307.59;;;4.06;100.00
29903;BME280;30288;50.514;9.678;2023-01-15T05:37:42;97303.34;;;4.10;100.00
29903;BME280;30288;50.514;9.678;2023-01-15T05:39:47;97303.34;;;4.10;100.00
29903;BME280;30288;50.514;9.678;2023-01-15T05:41:52;97298.34;;;4.11;100.00
29903;BME280;30288;50.514;9.678;2023-01-15T05:44:01;97296.66;;;4.13;100.00
29903;BME280;30288;50.514;9.678;2023-01-15T05:46:06;97298.47;;;4.07;100.00
29903;BME280;30288;50.514;9.678;2023-01-15T05:48:11;97300.88;;;4.10;100.00
29903;BME280;30288;50.514;9.678;2023-01-15T05:50:16;97301.69;;;4.10;100.00
29903;BME280;30288;50.514;9.678;2023-01-15T05:52:21;97296.66;;;4.13;100.00
29903;BME280;30288;50.514;9.678;2023-01-15T05:54:31;97304.97;;;4.12;100.00
29903;BME280;30288;50.514;9.678;2023-01-15T05:56:37;97306.59;;;4.13;100.00
29903;BME280;30288;50.514;9.678;2023-01-15T05:58:42;97313.28;;;4.11;100.00
29903;BME280;30288;50.514;9.678;2023-01-15T06:00:47;97310.81;;;4.10;100.00
29903;BME280;30288;50.514;9.678;2023-01-15T06:02:52;97300.94;;;4.08;100.00
29903;BME280;30288;50.514;9.678;2023-01-15T06:04:58;97313.38;;;4.08;100.00
29903;BME280;30288;50.514;9.678;2023-01-15T06:07:04;97307.56;;;4.08;100.00
29903;BME280;30288;50.514;9.678;2023-01-15T06:09:09;97306.81;;;4.04;100.00
29903;BME280;30288;50.514;9.678;2023-01-15T06:11:17;97315.19;;;4.02;100.00
29903;BME280;30288;50.514;9.678;2023-01-15T06:13:22;97323.56;;;3.99;100.00
29903;BME280;30288;50.514;9.678;2023-01-15T06:15:27;97331.91;;;3.98;100.00
29903;BME280;30288;50.514;9.678;2023-01-15T06:17:32;97317.78;;;3.99;100.00
29903;BME280;30288;50.514;9.678;2023-01-15T06:19:38;97325.28;;;3.97;100.00
29903;BME280;30288;50.514;9.678;2023-01-15T06:21:43;97328.47;;;4.02;100.00
29903;BME280;30288;50.514;9.678;2023-01-15T06:23:52;97320.16;;;4.03;100.00
29903;BME280;30288;50.514;9.678;2023-01-15T06:25:59;97308.63;;;3.99;100.00
29903;BME280;30288;50.514;9.678;2023-01-15T06:28:09;97316.97;;;3.96;100.00
29903;BME280;30288;50.514;9.678;2023-01-15T06:30:15;97326.81;;;4.01;100.00
29903;BME280;30288;50.514;9.678;2023-01-15T06:32:20;97321.03;;;4.01;100.00
29903;BME280;30288;50.514;9.678;2023-01-15T06:34:26;97326.91;;;3.98;100.00
29903;BME280;30288;50.514;9.678;2023-01-15T06:36:31;97324.38;;;4.00;100.00
29903;BME280;30288;50.514;9.678;2023-01-15T06:38:37;97324.47;;;3.95;100.00
29903;BME280;30288;50.514;9.678;2023-01-15T06:40:42;97328.56;;;3.99;100.00
29903;BME280;30288;50.514;9.678;2023-01-15T06:42:47;97328.59;;;3.96;100.00
29903;BME280;30288;50.514;9.678;2023-01-15T06:45:10;97325.28;;;3.97;100.00
29903;BME280;30288;50.514;9.678;2023-01-15T06:47:27;97336.09;;;3.96;100.00
29903;BME280;30288;50.514;9.678;2023-01-15T06:49:34;97345.28;;;3.94;100.00
29903;BME280;30288;50.514;9.678;2023-01-15T06:51:40;97351.94;;;3.92;100.00
29903;BME280;30288;50.514;9.678;2023-01-15T06:53:46;97354.38;;;3.95;100.00
29903;BME280;30288;50.514;9.678;2023-01-15T06:55:51;97350.31;;;3.91;100.00
29903;BME280;30288;50.514;9.678;2023-01-15T06:57:56;97351.16;;;3.90;100.00
29903;BME280;30288;50.514;9.678;2023-01-15T07:00:02;97348.63;;;3.93;100.00
29903;BME280;30288;50.514;9.678;2023-01-15T07:02:11;97339.53;;;3.90;100.00
29903;BME280;30288;50.514;9.678;2023-01-15T07:04:16;97349.56;;;3.87;100.00
29903;BME280;30288;50.514;9.678;2023-01-15T07:06:21;97363.78;;;3.84;100.00
29903;BME280;30288;50.514;9.678;2023-01-15T07:08:27;97374.66;;;3.80;100.00
29903;BME280;30288;50.514;9.678;2023-01-15T07:10:33;97367.97;;;3.82;100.00
29903;BME280;30288;50.514;9.678;2023-01-15T07:12:39;97380.31;;;3.85;100.00
29903;BME280;30288;50.514;9.678;2023-01-15T07:14:44;97381.13;;;3.87;100.00
29903;BME280;30288;50.514;9.678;2023-01-15T07:16:50;97393.72;;;3.81;100.00
29903;BME280;30288;50.514;9.678;2023-01-15T07:18:58;97387.13;;;3.80;100.00
29903;BME280;30288;50.514;9.678;2023-01-15T07:21:03;97385.47;;;3.79;100.00
29903;BME280;30288;50.514;9.678;2023-01-15T07:23:09;97383.13;;;3.73;100.00
29903;BME280;30288;50.514;9.678;2023-01-15T07:25:16;97378.97;;;3.72;100.00
29903;BME280;30288;50.514;9.678;2023-01-15T07:27:22;97384.00;;;3.70;100.00
29903;BME280;30288;50.514;9.678;2023-01-15T07:29:27;97399.78;;;3.69;100.00
29903;BME280;30288;50.514;9.678;2023-01-15T07:31:32;97378.94;;;3.73;100.00
29903;BME280;30288;50.514;9.678;2023-01-15T07:33:38;97395.47;;;3.76;100.00
29903;BME280;30288;50.514;9.678;2023-01-15T07:35:45;97395.47;;;3.76;100.00
29903;BME280;30288;50.514;9.678;2023-01-15T07:37:50;97401.38;;;3.72;100.00
29903;BME280;30288;50.514;9.678;2023-01-15T07:39:56;97403.66;;;3.81;100.00
29903;BME280;30288;50.514;9.678;2023-01-15T07:42:01;97402.84;;;3.80;100.00
29903;BME280;30288;50.514;9.678;2023-01-15T07:44:19;97407.03;;;3.80;100.00
29903;BME280;30288;50.514;9.678;2023-01-15T07:46:38;97406.88;;;3.86;100.00
29903;BME280;30288;50.514;9.678;2023-01-15T07:48:55;97409.34;;;3.87;100.00
29903;BME280;30288;50.514;9.678;2023-01-15T07:51:30;97410.22;;;3.85;100.00
29903;BME280;30288;50.514;9.678;2023-01-15T07:53:35;97430.09;;;3.88;100.00
29903;BME280;30288;50.514;9.678;2023-01-15T07:55:40;97428.53;;;3.84;100.00
29903;BME280;30288;50.514;9.678;2023-01-15T07:57:45;97435.94;;;3.85;100.00
29903;BME280;30288;50.514;9.678;2023-01-15T07:59:50;97426.88;;;3.83;100.00
29903;BME280;30288;50.514;9.678;2023-01-15T08:01:55;97443.47;;;3.82;100.00
29903;BME280;30288;50.514;9.678;2023-01-15T08:04:00;97443.66;;;3.75;100.00
29903;BME280;30288;50.514;9.678;2023-01-15T08:06:06;97447.03;;;3.71;100.00
29903;BME280;30288;50.514;9.678;2023-01-15T08:08:16;97443.72;;;3.72;100.00
29903;BME280;30288;50.514;9.678;2023-01-15T08:10:21;97443.72;;;3.72;100.00
29903;BME280;30288;50.514;9.678;2023-01-15T08:12:27;97447.03;;;3.71;100.00
29903;BME280;30288;50.514;9.678;2023-01-15T08:14:45;97452.91;;;3.70;100.00
29903;BME280;30288;50.514;9.678;2023-01-15T08:17:03;97456.13;;;3.75;100.00
29903;BME280;30288;50.514;9.678;2023-01-15T08:19:08;97455.38;;;3.70;100.00
29903;BME280;30288;50.514;9.678;2023-01-15T08:21:13;97462.91;;;3.67;100.00
29903;BME280;30288;50.514;9.678;2023-01-15T08:23:21;97457.00;;;3.71;100.00
29903;BME280;30288;50.514;9.678;2023-01-15T08:25:27;97461.94;;;3.74;100.00
29903;BME280;30288;50.514;9.678;2023-01-15T08:27:32;97470.31;;;3.70;100.00
29903;BME280;30288;50.514;9.678;2023-01-15T08:29:37;97463.69;;;3.69;100.00
29903;BME280;30288;50.514;9.678;2023-01-15T08:31:42;97475.50;;;3.61;100.00
29903;BME280;30288;50.514;9.678;2023-01-15T08:33:47;97485.44;;;3.61;100.00
29903;BME280;30288;50.514;9.678;2023-01-15T08:35:52;97483.94;;;3.53;100.00
29903;BME280;30288;50.514;9.678;2023-01-15T08:37:58;97486.41;;;3.55;100.00
29903;BME280;30288;50.514;9.678;2023-01-15T08:40:09;97483.06;;;3.56;100.00
29903;BME280;30288;50.514;9.678;2023-01-15T08:42:15;97485.66;;;3.51;100.00
29903;BME280;30288;50.514;9.678;2023-01-15T08:44:20;97482.25;;;3.56;100.00
29903;BME280;30288;50.514;9.678;2023-01-15T08:46:25;97482.34;;;3.49;100.00
29903;BME280;30288;50.514;9.678;2023-01-15T08:48:32;97489.84;;;3.48;100.00
29903;BME280;30288;50.514;9.678;2023-01-15T08:50:37;97485.78;;;3.42;100.00
29903;BME280;30288;50.514;9.678;2023-01-15T08:52:42;97489.09;;;3.44;100.00
29903;BME280;30288;50.514;9.678;2023-01-15T08:54:47;97484.03;;;3.47;100.00
29903;BME280;30288;50.514;9.678;2023-01-15T08:56:54;97491.66;;;3.41;100.00
29903;BME280;30288;50.514;9.678;2023-01-15T08:59:03;97491.59;;;3.43;100.00
29903;BME280;30288;50.514;9.678;2023-01-15T09:01:10;97495.75;;;3.42;100.00
29903;BME280;30288;50.514;9.678;2023-01-15T09:03:17;97495.88;;;3.36;100.00
29903;BME280;30288;50.514;9.678;2023-01-15T09:05:22;97500.91;;;3.33;100.00
29903;BME280;30288;50.514;9.678;2023-01-15T09:07:29;97499.22;;;3.35;100.00
29903;BME280;30288;50.514;9.678;2023-01-15T09:09:36;97495.25;;;3.27;100.00
29903;BME280;30288;50.514;9.678;2023-01-15T09:11:41;97496.09;;;3.24;100.00
29903;BME280;30288;50.514;9.678;2023-01-15T09:13:50;97499.44;;;3.23;100.00
29903;BME280;30288;50.514;9.678;2023-01-15T09:15:58;97501.22;;;3.18;100.00
29903;BME280;30288;50.514;9.678;2023-01-15T09:18:04;97509.56;;;3.14;100.00
29903;BME280;30288;50.514;9.678;2023-01-15T09:20:13;97512.25;;;3.03;100.00
29903;BME280;30288;50.514;9.678;2023-01-15T09:22:18;97520.66;;;2.96;100.00
29903;BME280;30288;50.514;9.678;2023-01-15T09:24:23;97534.06;;;2.88;100.00
29903;BME280;30288;50.514;9.678;2023-01-15T09:26:31;97537.47;;;2.84;100.00
29903;BME280;30288;50.514;9.678;2023-01-15T09:28:36;97539.34;;;2.70;100.00
29903;BME280;30288;50.514;9.678;2023-01-15T09:30:44;97541.19;;;2.58;100.00
29903;BME280;30288;50.514;9.678;2023-01-15T09:32:49;97547.03;;;2.54;100.00
29903;BME280;30288;50.514;9.678;2023-01-15T09:34:54;97548.84;;;2.43;100.00
29903;BME280;30288;50.514;9.678;2023-01-15T09:36:59;97553.97;;;2.34;100.00
29903;BME280;30288;50.514;9.678;2023-01-15T09:39:05;97557.25;;;2.36;100.00
29903;BME280;30288;50.514;9.678;2023-01-15T09:41:12;97566.31;;;2.40;100.00
29903;BME280;30288;50.514;9.678;2023-01-15T09:43:43;97562.03;;;2.48;100.00
29903;BME280;30288;50.514;9.678;2023-01-15T09:45:59;97567.13;;;2.39;100.00
29903;BME280;30288;50.514;9.678;2023-01-15T09:48:22;97568.94;;;2.28;100.00
29903;BME280;30288;50.514;9.678;2023-01-15T09:50:46;97573.97;;;2.25;100.00
29903;BME280;30288;50.514;9.678;2023-01-15T09:53:05;97567.41;;;2.21;100.00
29903;BME280;30288;50.514;9.678;2023-01-15T09:55:18;97569.06;;;2.19;100.00
29903;BME280;30288;50.514;9.678;2023-01-15T09:57:24;97569.19;;;2.13;100.00
29903;BME280;30288;50.514;9.678;2023-01-15T09:59:34;97574.94;;;2.15;100.00
29903;BME280;30288;50.514;9.678;2023-01-15T10:01:45;97568.38;;;2.09;100.00
29903;BME280;30288;50.514;9.678;2023-01-15T10:03:57;97563.38;;;2.12;100.00
29903;BME280;30288;50.514;9.678;2023-01-15T10:06:11;97562.50;;;2.15;100.00
29903;BME280;30288;50.514;9.678;2023-01-15T10:08:21;97563.44;;;2.08;100.00
29903;BME280;30288;50.514;9.678;2023-01-15T10:10:34;97567.66;;;2.00;100.00
29903;BME280;30288;50.514;9.678;2023-01-15T10:12:44;97559.25;;;2.10;100.00
29903;BME280;30288;50.514;9.678;2023-01-15T10:14:58;97547.59;;;2.18;100.00
29903;BME280;30288;50.514;9.678;2023-01-15T10:17:25;97541.03;;;2.11;100.00
29903;BME280;30288;50.514;9.678;2023-01-15T10:19:31;97555.94;;;2.11;100.00
29903;BME280;30288;50.514;9.678;2023-01-15T10:21:50;97552.69;;;2.06;100.00
29903;BME280;30288;50.514;9.678;2023-01-15T10:24:04;97549.44;;;2.01;100.00
29903;BME280;30288;50.514;9.678;2023-01-15T10:26:19;97546.13;;;2.03;100.00
29903;BME280;30288;50.514;9.678;2023-01-15T10:28:30;97544.38;;;2.10;100.00
29903;BME280;30288;50.514;9.678;2023-01-15T10:30:42;97551.75;;;2.16;100.00
29903;BME280;30288;50.514;9.678;2023-01-15T10:32:55;97559.38;;;2.01;100.00
29903;BME280;30288;50.514;9.678;2023-01-15T10:35:20;97563.34;;;2.14;100.00
29903;BME280;30288;50.514;9.678;2023-01-15T10:37:33;97562.34;;;2.27;100.00
29903;BME280;30288;50.514;9.678;2023-01-15T10:39:51;97560.56;;;2.35;100.00
29903;BME280;30288;50.514;9.678;2023-01-15T10:42:11;97563.81;;;2.40;100.00
29903;BME280;30288;50.514;9.678;2023-01-15T10:44:25;97555.41;;;2.47;100.00
29903;BME280;30288;50.514;9.678;2023-01-15T10:46:35;97552.16;;;2.45;100.00
29903;BME280;30288;50.514;9.678;2023-01-15T10:48:47;97558.78;;;2.43;100.00
29903;BME280;30288;50.514;9.678;2023-01-15T10:50:55;97551.28;;;2.48;100.00
29903;BME280;30288;50.514;9.678;2023-01-15T10:53:08;97545.44;;;2.50;100.00
29903;BME280;30288;50.514;9.678;2023-01-15T10:55:22;97540.56;;;2.44;100.00
29903;BME280;30288;50.514;9.678;2023-01-15T10:57:40;97536.94;;;2.63;100.00
29903;BME280;30288;50.514;9.678;2023-01-15T10:59:57;97542.69;;;2.67;100.00
29903;BME280;30288;50.514;9.678;2023-01-15T11:02:26;97535.16;;;2.72;100.00
29903;BME280;30288;50.514;9.678;2023-01-15T11:04:35;97536.72;;;2.79;100.00
29903;BME280;30288;50.514;9.678;2023-01-15T11:06:41;97535.75;;;2.86;100.00
29903;BME280;30288;50.514;9.678;2023-01-15T11:08:51;97530.81;;;2.84;100.00
29903;BME280;30288;50.514;9.678;2023-01-15T11:11:19;97536.41;;;2.97;100.00
29903;BME280;30288;50.514;9.678;2023-01-15T11:13:55;97538.06;;;2.98;100.00
29903;BME280;30288;50.514;9.678;2023-01-15T11:16:14;97529.59;;;3.08;100.00
29903;BME280;30288;50.514;9.678;2023-01-15T11:18:35;97541.06;;;3.15;100.00
29903;BME280;30288;50.514;9.678;2023-01-15T11:20:58;97547.75;;;3.13;100.00
29903;BME280;30288;50.514;9.678;2023-01-15T11:23:08;97547.59;;;3.19;100.00
29903;BME280;30288;50.514;9.678;2023-01-15T11:25:26;97544.19;;;3.26;100.00